createdAt,value
2022-12-13T00:01:14.811Z,-4.70
2022-12-13T00:04:02.624Z,-4.70
2022-12-13T00:06:48.967Z,-4.70
2022-12-13T00:09:35.335Z,-4.80
2022-12-13T00:12:21.275Z,-4.80
2022-12-13T00:15:07.580Z,-4.80
2022-12-13T00:17:53.172Z,-4.80
2022-12-13T00:20:40.108Z,-4.80
2022-12-13T00:23:26.017Z,-4.80
2022-12-13T00:26:16.672Z,-4.90
2022-12-13T00:29:03.917Z,-4.90
2022-12-13T00:32:00.712Z,-4.90
2022-12-13T00:34:47.004Z,-5.00
2022-12-13T00:37:33.346Z,-5.00
2022-12-13T00:40:19.285Z,-5.10
2022-12-13T00:43:05.296Z,-5.00
2022-12-13T00:45:51.321Z,-5.00
2022-12-13T00:48:36.979Z,-5.00
2022-12-13T00:51:23.148Z,-5.00
2022-12-13T00:54:09.938Z,-5.00
2022-12-13T00:56:55.973Z,-5.10
2022-12-13T00:59:42.251Z,-5.10
2022-12-13T01:02:28.203Z,-5.20
2022-12-13T01:05:14.810Z,-5.20
2022-12-13T01:08:03.438Z,-5.30
2022-12-13T01:10:49.415Z,-5.40
2022-12-13T01:13:35.340Z,-5.40
2022-12-13T01:16:21.420Z,-5.40
2022-12-13T01:19:07.390Z,-5.40
2022-12-13T01:21:57.087Z,-5.50
2022-12-13T01:24:45.607Z,-5.40
2022-12-13T01:27:32.040Z,-5.40
2022-12-13T01:30:17.891Z,-5.40
2022-12-13T01:33:03.938Z,-5.40
2022-12-13T01:36:00.741Z,-5.50
2022-12-13T01:38:47.267Z,-5.50
2022-12-13T01:41:33.468Z,-5.60
2022-12-13T01:44:38.324Z,-5.60
2022-12-13T01:47:30.837Z,-5.60
2022-12-13T01:50:27.683Z,-5.60
2022-12-13T01:53:17.207Z,-5.70
2022-12-13T01:56:06.451Z,-5.60
2022-12-13T01:58:53.911Z,-5.60
2022-12-13T02:01:40.290Z,-5.60
2022-12-13T02:04:29.480Z,-5.70
2022-12-13T02:07:22.917Z,-5.80
2022-12-13T02:10:09.847Z,-5.80
2022-12-13T02:12:56.045Z,-5.90
2022-12-13T02:15:46.458Z,-5.90
2022-12-13T02:18:37.902Z,-5.90
2022-12-13T02:21:26.971Z,-5.90
2022-12-13T02:24:26.956Z,-5.90
2022-12-13T02:27:30.635Z,-5.80
2022-12-13T02:30:19.612Z,-5.90
2022-12-13T02:33:05.307Z,-5.90
2022-12-13T02:35:53.040Z,-5.90
2022-12-13T02:38:49.856Z,-6.00
2022-12-13T02:41:39.156Z,-6.00
2022-12-13T02:44:40.612Z,-6.00
2022-12-13T02:47:27.479Z,-6.00
2022-12-13T02:50:14.119Z,-6.20
2022-12-13T02:53:00.730Z,-6.10
2022-12-13T02:55:46.372Z,-6.20
2022-12-13T02:58:34.228Z,-6.10
2022-12-13T03:01:29.208Z,-6.10
2022-12-13T03:04:34.045Z,-6.10
2022-12-13T03:07:26.447Z,-6.00
2022-12-13T03:10:17.848Z,-6.10
2022-12-13T03:13:26.174Z,-6.20
2022-12-13T03:16:14.784Z,-6.20
2022-12-13T03:19:09.988Z,-6.20
2022-12-13T03:21:55.730Z,-6.30
2022-12-13T03:24:41.608Z,-6.20
2022-12-13T03:27:27.553Z,-6.40
2022-12-13T03:30:13.688Z,-6.40
2022-12-13T03:32:59.877Z,-6.40
2022-12-13T03:35:46.618Z,-6.40
2022-12-13T03:38:32.951Z,-6.40
2022-12-13T03:41:20.493Z,-6.50
2022-12-13T03:44:07.623Z,-6.60
2022-12-13T03:46:53.735Z,-6.70
2022-12-13T03:49:40.215Z,-6.70
2022-12-13T03:52:26.335Z,-6.70
2022-12-13T03:55:12.306Z,-6.60
2022-12-13T03:57:59.953Z,-6.70
2022-12-13T04:00:49.560Z,-6.60
2022-12-13T04:03:36.572Z,-6.70
2022-12-13T04:06:24.675Z,-6.80
2022-12-13T04:09:13.313Z,-6.80
2022-12-13T04:12:18.159Z,-6.80
2022-12-13T04:15:04.124Z,-6.90
2022-12-13T04:17:51.258Z,-6.90
2022-12-13T04:20:37.267Z,-7.00
2022-12-13T04:23:23.321Z,-7.00
2022-12-13T04:26:09.367Z,-7.10
2022-12-13T04:28:55.487Z,-7.10
2022-12-13T04:31:41.432Z,-7.20
2022-12-13T04:34:30.693Z,-7.10
2022-12-13T04:37:21.032Z,-7.30
2022-12-13T04:40:07.391Z,-7.30
2022-12-13T04:42:54.666Z,-7.30
2022-12-13T04:45:41.054Z,-7.20
2022-12-13T04:48:31.435Z,-7.20
2022-12-13T04:51:17.850Z,-7.20
2022-12-13T04:54:13.121Z,-7.20
2022-12-13T04:57:10.950Z,-7.20
2022-12-13T04:59:56.536Z,-7.40
2022-12-13T05:02:42.664Z,-7.40
2022-12-13T05:05:28.595Z,-7.30
2022-12-13T05:08:14.676Z,-7.50
2022-12-13T05:11:02.131Z,-7.50
2022-12-13T05:13:48.187Z,-7.60
2022-12-13T05:16:34.338Z,-7.60
2022-12-13T05:19:20.532Z,-7.60
2022-12-13T05:22:06.364Z,-7.60
2022-12-13T05:24:53.038Z,-7.60
2022-12-13T05:27:38.975Z,-7.50
2022-12-13T05:30:24.916Z,-7.50
2022-12-13T05:33:11.160Z,-7.50
2022-12-13T05:36:00.654Z,-7.50
2022-12-13T05:38:47.978Z,-7.60
2022-12-13T05:41:36.844Z,-7.60
2022-12-13T05:44:23.018Z,-7.60
2022-12-13T05:47:09.082Z,-7.60
2022-12-13T05:49:55.050Z,-7.60
2022-12-13T05:52:42.020Z,-7.60
2022-12-13T05:55:28.084Z,-7.70
2022-12-13T05:58:15.305Z,-7.80
2022-12-13T06:01:10.386Z,-7.70
2022-12-13T06:03:56.385Z,-7.70
2022-12-13T06:06:42.373Z,-7.60
2022-12-13T06:09:28.404Z,-7.50
2022-12-13T06:12:31.774Z,-7.50
2022-12-13T06:15:21.618Z,-7.50
2022-12-13T06:18:08.172Z,-7.50
2022-12-13T06:20:58.530Z,-7.50
2022-12-13T06:23:44.451Z,-7.60
2022-12-13T06:26:30.385Z,-7.60
2022-12-13T06:29:23.075Z,-7.70
2022-12-13T06:32:10.626Z,-7.70
2022-12-13T06:34:56.942Z,-7.70
2022-12-13T06:37:42.690Z,-7.70
2022-12-13T06:40:32.422Z,-7.70
2022-12-13T06:43:19.524Z,-7.70
2022-12-13T06:46:05.960Z,-7.80
2022-12-13T06:48:52.172Z,-7.80
2022-12-13T06:51:37.959Z,-7.90
2022-12-13T06:54:24.029Z,-8.00
2022-12-13T06:57:13.399Z,-7.90
2022-12-13T06:59:59.021Z,-7.90
2022-12-13T07:02:45.139Z,-7.80
2022-12-13T07:05:31.066Z,-7.90
2022-12-13T07:08:22.541Z,-7.80
2022-12-13T07:11:13.380Z,-7.90
2022-12-13T07:13:59.599Z,-7.80
2022-12-13T07:16:45.690Z,-7.80
2022-12-13T07:19:42.213Z,-7.70
2022-12-13T07:22:28.408Z,-7.70
2022-12-13T07:25:27.703Z,-7.60
2022-12-13T07:28:14.633Z,-7.60
2022-12-13T07:31:02.243Z,-7.60
2022-12-13T07:33:47.840Z,-7.50
2022-12-13T07:36:33.955Z,-7.40
2022-12-13T07:39:19.862Z,-7.30
2022-12-13T07:42:06.081Z,-7.10
2022-12-13T07:44:52.126Z,-7.00
2022-12-13T07:47:38.094Z,-7.00
2022-12-13T07:50:25.782Z,-7.10
2022-12-13T07:53:12.148Z,-7.00
2022-12-13T07:55:58.010Z,-6.90
2022-12-13T07:58:44.092Z,-6.80
2022-12-13T08:01:31.758Z,-6.70
2022-12-13T08:04:18.067Z,-6.60
2022-12-13T08:07:06.237Z,-6.50
2022-12-13T08:09:53.147Z,-6.40
2022-12-13T08:12:39.253Z,-6.40
2022-12-13T08:15:25.819Z,-6.30
2022-12-13T08:18:12.144Z,-5.80
2022-12-13T08:21:02.271Z,-5.60
2022-12-13T08:23:48.217Z,-5.20
2022-12-13T08:26:34.244Z,-4.80
2022-12-13T08:29:22.851Z,-4.60
2022-12-13T08:32:19.792Z,-4.60
2022-12-13T08:35:05.950Z,-4.50
2022-12-13T08:37:51.556Z,-4.50
2022-12-13T08:40:38.561Z,-4.40
2022-12-13T08:43:25.376Z,-4.40
2022-12-13T08:46:11.372Z,-4.50
2022-12-13T08:48:57.403Z,-4.60
2022-12-13T08:51:43.481Z,-4.40
2022-12-13T08:54:33.093Z,-4.30
2022-12-13T08:57:21.484Z,-4.40
2022-12-13T09:00:08.189Z,-4.60
2022-12-13T09:02:57.265Z,-4.70
2022-12-13T09:05:43.759Z,-4.60
2022-12-13T09:08:29.579Z,-4.50
2022-12-13T09:11:34.479Z,-4.30
2022-12-13T09:14:23.514Z,-4.10
2022-12-13T09:17:09.896Z,-4.00
2022-12-13T09:20:29.195Z,-4.00
2022-12-13T09:23:23.860Z,-4.10
2022-12-13T09:26:11.264Z,-4.00
2022-12-13T09:29:10.626Z,-3.90
2022-12-13T09:31:57.971Z,-3.80
2022-12-13T09:34:46.050Z,-3.60
2022-12-13T09:37:32.149Z,-3.40
2022-12-13T09:40:25.983Z,-3.30
2022-12-13T09:43:31.947Z,-3.10
2022-12-13T09:46:26.667Z,-3.10
2022-12-13T09:49:23.106Z,-2.80
2022-12-13T09:52:21.615Z,-2.40
2022-12-13T09:55:17.532Z,-1.70
2022-12-13T09:58:07.856Z,-1.20
2022-12-13T10:00:54.587Z,-1.10
2022-12-13T10:03:43.244Z,-0.80
2022-12-13T10:06:32.647Z,-0.20
2022-12-13T10:09:19.323Z,0.40
2022-12-13T10:12:05.251Z,1.10
2022-12-13T10:14:54.272Z,1.90
2022-12-13T10:17:41.117Z,2.60
2022-12-13T10:20:28.911Z,3.10
2022-12-13T10:23:35.649Z,3.10
2022-12-13T10:26:24.430Z,2.70
2022-12-13T10:29:11.124Z,2.30
2022-12-13T10:31:56.909Z,2.50
2022-12-13T10:34:42.905Z,2.30
2022-12-13T10:37:30.592Z,2.40
2022-12-13T10:40:36.264Z,2.40
2022-12-13T10:43:32.875Z,2.50
2022-12-13T10:46:25.124Z,3.30
2022-12-13T10:49:24.945Z,3.70
2022-12-13T10:52:31.601Z,4.00
2022-12-13T10:55:30.147Z,4.10
2022-12-13T10:58:18.888Z,4.20
2022-12-13T11:01:22.640Z,4.10
2022-12-13T11:04:27.161Z,4.60
2022-12-13T11:07:30.088Z,4.60
2022-12-13T11:10:27.822Z,4.40
2022-12-13T11:13:23.933Z,3.70
2022-12-13T11:16:16.301Z,3.10
2022-12-13T11:19:04.803Z,2.90
2022-12-13T11:21:52.428Z,2.80
2022-12-13T11:24:41.042Z,2.90
2022-12-13T11:27:45.821Z,3.50
2022-12-13T11:30:34.912Z,3.50
2022-12-13T11:33:28.085Z,3.80
2022-12-13T11:36:14.016Z,4.20
2022-12-13T11:39:03.035Z,4.60
2022-12-13T11:41:55.237Z,4.60
2022-12-13T11:44:56.622Z,4.50
2022-12-13T11:47:46.389Z,4.00
2022-12-13T11:50:36.970Z,3.90
2022-12-13T11:53:33.670Z,4.10
2022-12-13T11:56:21.799Z,3.90
2022-12-13T11:59:26.959Z,3.70
2022-12-13T12:02:32.696Z,3.30
2022-12-13T12:05:33.358Z,2.80
2022-12-13T12:08:43.625Z,2.00
2022-12-13T12:11:33.678Z,1.80
2022-12-13T12:14:24.952Z,1.50
2022-12-13T12:17:15.354Z,1.20
2022-12-13T12:20:02.414Z,1.40
2022-12-13T12:22:48.408Z,1.70
2022-12-13T12:25:51.675Z,2.00
2022-12-13T12:28:56.903Z,2.50
2022-12-13T12:32:02.111Z,2.80
2022-12-13T12:35:11.257Z,3.10
2022-12-13T12:38:16.535Z,3.80
2022-12-13T12:41:18.156Z,3.90
2022-12-13T12:44:04.726Z,3.80
2022-12-13T12:47:18.190Z,3.50
2022-12-13T12:50:23.132Z,3.30
2022-12-13T12:53:12.237Z,2.70
2022-12-13T12:56:33.707Z,2.10
2022-12-13T12:59:28.100Z,1.80
2022-12-13T13:02:30.117Z,1.90
2022-12-13T13:05:26.529Z,2.00
2022-12-13T13:08:31.724Z,2.00
2022-12-13T13:11:23.876Z,2.20
2022-12-13T13:14:23.752Z,2.00
2022-12-13T13:17:16.040Z,1.90
2022-12-13T13:20:15.843Z,1.80
2022-12-13T13:23:43.900Z,1.80
2022-12-13T13:26:36.274Z,1.70
2022-12-13T13:29:27.110Z,2.00
2022-12-13T13:32:28.340Z,1.60
2022-12-13T13:35:28.433Z,1.40
2022-12-13T13:38:17.694Z,1.30
2022-12-13T13:41:23.552Z,1.30
2022-12-13T13:44:28.897Z,1.60
2022-12-13T13:47:22.382Z,2.10
2022-12-13T13:50:08.031Z,2.10
2022-12-13T13:52:54.035Z,2.10
2022-12-13T13:56:02.069Z,1.90
2022-12-13T13:59:07.942Z,1.40
2022-12-13T14:02:06.264Z,1.10
2022-12-13T14:05:05.108Z,0.90
2022-12-13T14:07:53.956Z,0.60
2022-12-13T14:10:51.972Z,0.50
2022-12-13T14:13:56.519Z,0.70
2022-12-13T14:16:48.512Z,0.90
2022-12-13T14:19:40.605Z,0.80
2022-12-13T14:22:31.189Z,0.70
2022-12-13T14:25:20.097Z,0.60
2022-12-13T14:28:15.463Z,0.50
2022-12-13T14:31:01.876Z,0.40
2022-12-13T14:33:47.856Z,0.30
2022-12-13T14:36:36.461Z,-0.10
2022-12-13T14:39:25.562Z,-0.10
2022-12-13T14:42:41.460Z,-0.30
2022-12-13T14:45:37.972Z,-0.50
2022-12-13T14:48:28.903Z,-1.00
2022-12-13T14:51:24.262Z,-1.20
2022-12-13T14:54:17.013Z,-1.50
2022-12-13T14:57:04.900Z,-1.70
2022-12-13T14:59:52.304Z,-1.70
2022-12-13T15:02:49.952Z,-1.60
2022-12-13T15:05:50.198Z,-1.40
2022-12-13T15:08:37.297Z,-1.40
2022-12-13T15:11:23.316Z,-1.70
2022-12-13T15:14:18.350Z,-1.90
2022-12-13T15:17:04.764Z,-2.10
2022-12-13T15:19:51.354Z,-2.30
2022-12-13T15:22:37.995Z,-2.50
2022-12-13T15:25:27.508Z,-2.70
2022-12-13T15:28:18.184Z,-2.70
2022-12-13T15:31:06.299Z,-2.70
2022-12-13T15:33:52.530Z,-2.70
2022-12-13T15:36:47.536Z,-2.80
2022-12-13T15:39:36.182Z,-2.80
2022-12-13T15:42:24.206Z,-2.90
2022-12-13T15:45:19.673Z,-2.90
2022-12-13T15:48:05.986Z,-3.00
2022-12-13T15:51:04.007Z,-3.00
2022-12-13T15:54:01.966Z,-3.00
2022-12-13T15:57:07.023Z,-3.10
2022-12-13T16:00:08.496Z,-3.10
2022-12-13T16:03:09.702Z,-3.00
2022-12-13T16:05:56.878Z,-3.10
2022-12-13T16:08:49.241Z,-3.10
2022-12-13T16:11:38.292Z,-3.00
2022-12-13T16:14:27.107Z,-3.00
2022-12-13T16:17:25.049Z,-3.10
2022-12-13T16:20:14.499Z,-3.10
2022-12-13T16:23:00.640Z,-3.10
2022-12-13T16:25:55.329Z,-3.10
2022-12-13T16:28:41.591Z,-3.10
2022-12-13T16:31:31.547Z,-3.10
2022-12-13T16:34:19.554Z,-3.10
2022-12-13T16:37:26.319Z,-3.20
2022-12-13T16:40:23.155Z,-3.20
2022-12-13T16:43:16.318Z,-3.20
2022-12-13T16:47:12.404Z,-3.20
2022-12-13T16:49:18.449Z,-3.20
2022-12-13T16:52:05.947Z,-3.30
2022-12-13T16:54:52.738Z,-3.30
2022-12-13T16:57:39.516Z,-3.30
2022-12-13T17:00:26.783Z,-3.30
2022-12-13T17:03:13.592Z,-3.30
2022-12-13T17:05:59.880Z,-3.40
2022-12-13T17:08:45.908Z,-3.40
2022-12-13T17:11:32.458Z,-3.50
2022-12-13T17:14:18.436Z,-3.50
2022-12-13T17:17:04.466Z,-3.50
2022-12-13T17:19:51.254Z,-3.40
2022-12-13T17:22:37.609Z,-3.50
2022-12-13T17:25:23.855Z,-3.50
2022-12-13T17:28:10.041Z,-3.50
2022-12-13T17:31:03.828Z,-3.50
2022-12-13T17:33:49.990Z,-3.50
2022-12-13T17:36:36.575Z,-3.60
2022-12-13T17:39:22.779Z,-3.60
2022-12-13T17:42:09.477Z,-3.60
2022-12-13T17:44:55.696Z,-3.70
2022-12-13T17:47:41.861Z,-3.70
2022-12-13T17:50:28.107Z,-3.70
2022-12-13T17:53:13.887Z,-3.60
2022-12-13T17:56:01.773Z,-3.70
2022-12-13T17:58:48.259Z,-3.70
2022-12-13T18:01:34.132Z,-3.80
2022-12-13T18:04:20.855Z,-3.70
2022-12-13T18:07:06.557Z,-3.90
2022-12-13T18:09:52.616Z,-4.00
2022-12-13T18:12:39.468Z,-4.00
2022-12-13T18:15:26.356Z,-4.00
2022-12-13T18:18:13.568Z,-4.00
2022-12-13T18:21:05.786Z,-3.80
2022-12-13T18:23:55.824Z,-3.80
2022-12-13T18:26:42.036Z,-3.80
2022-12-13T18:29:28.060Z,-3.80
2022-12-13T18:32:14.102Z,-3.90
2022-12-13T18:34:59.969Z,-3.90
2022-12-13T18:37:45.924Z,-3.90
2022-12-13T18:40:32.034Z,-3.90
2022-12-13T18:43:18.512Z,-3.90
2022-12-13T18:46:05.578Z,-3.90
2022-12-13T18:48:51.675Z,-4.00
2022-12-13T18:51:37.999Z,-4.00
2022-12-13T18:54:23.885Z,-4.10
2022-12-13T18:57:10.066Z,-4.00
2022-12-13T18:59:56.060Z,-3.90
2022-12-13T19:02:42.281Z,-3.90
2022-12-13T19:05:28.237Z,-3.90
2022-12-13T19:08:14.526Z,-3.90
2022-12-13T19:11:01.732Z,-3.90
2022-12-13T19:13:48.367Z,-3.90
2022-12-13T19:16:34.552Z,-3.90
2022-12-13T19:19:20.669Z,-3.80
2022-12-13T19:22:06.628Z,-3.90
2022-12-13T19:24:52.839Z,-3.80
2022-12-13T19:27:39.118Z,-3.80
2022-12-13T19:30:25.062Z,-3.70
2022-12-13T19:33:11.137Z,-3.70
2022-12-13T19:35:57.060Z,-3.70
2022-12-13T19:38:43.165Z,-3.80
2022-12-13T19:41:29.540Z,-3.80
2022-12-13T19:44:15.902Z,-3.80
2022-12-13T19:47:03.741Z,-3.70
2022-12-13T19:49:49.886Z,-3.70
2022-12-13T19:52:35.779Z,-3.70
2022-12-13T19:55:21.820Z,-3.70
2022-12-13T19:58:08.280Z,-3.70
2022-12-13T20:01:00.746Z,-3.70
2022-12-13T20:03:46.760Z,-3.70
2022-12-13T20:06:32.551Z,-3.70
2022-12-13T20:09:18.496Z,-3.80
2022-12-13T20:12:04.704Z,-3.70
2022-12-13T20:14:50.442Z,-3.70
2022-12-13T20:17:36.343Z,-3.60
2022-12-13T20:20:25.716Z,-3.70
2022-12-13T20:23:17.820Z,-3.70
2022-12-13T20:26:08.531Z,-3.70
2022-12-13T20:28:54.575Z,-3.60
2022-12-13T20:31:40.423Z,-3.60
2022-12-13T20:34:26.320Z,-3.70
2022-12-13T20:37:12.933Z,-3.60
2022-12-13T20:39:59.587Z,-3.60
2022-12-13T20:42:45.674Z,-3.60
2022-12-13T20:45:32.173Z,-3.60
2022-12-13T20:48:17.813Z,-3.70
2022-12-13T20:51:05.527Z,-3.70
2022-12-13T20:53:52.173Z,-3.70
2022-12-13T20:56:38.601Z,-3.70
2022-12-13T20:59:24.387Z,-3.70
2022-12-13T21:02:11.232Z,-3.70
2022-12-13T21:04:57.458Z,-3.70
2022-12-13T21:08:02.477Z,-3.70
2022-12-13T21:10:48.287Z,-3.70
2022-12-13T21:13:34.326Z,-3.70
2022-12-13T21:16:21.193Z,-3.70
2022-12-13T21:19:08.483Z,-3.60
2022-12-13T21:21:54.893Z,-3.60
2022-12-13T21:24:40.532Z,-3.50
2022-12-13T21:27:26.360Z,-3.50
2022-12-13T21:30:12.673Z,-3.50
2022-12-13T21:32:58.821Z,-3.50
2022-12-13T21:35:44.895Z,-3.50
2022-12-13T21:38:30.863Z,-3.40
2022-12-13T21:41:16.941Z,-3.50
2022-12-13T21:44:02.648Z,-3.40
2022-12-13T21:47:22.301Z,-3.40
2022-12-13T21:49:54.484Z,-3.50
2022-12-13T21:52:42.900Z,-3.40
2022-12-13T21:55:40.500Z,-3.30
2022-12-13T21:58:45.160Z,-3.30
2022-12-13T22:01:49.619Z,-3.30
2022-12-13T22:04:36.276Z,-3.20
2022-12-13T22:07:32.770Z,-3.20
2022-12-13T22:10:18.380Z,-3.20
2022-12-13T22:13:04.418Z,-3.20
2022-12-13T22:15:51.333Z,-3.20
2022-12-13T22:18:37.375Z,-3.20
2022-12-13T22:21:23.464Z,-3.20
2022-12-13T22:24:10.697Z,-3.20
2022-12-13T22:26:57.690Z,-3.10
2022-12-13T22:29:43.890Z,-3.00
2022-12-13T22:32:30.212Z,-3.10
2022-12-13T22:35:16.241Z,-3.10
2022-12-13T22:38:02.240Z,-3.00
2022-12-13T22:40:48.329Z,-3.00
2022-12-13T22:43:35.223Z,-3.10
2022-12-13T22:46:21.563Z,-3.10
2022-12-13T22:49:08.364Z,-3.00
2022-12-13T22:51:54.228Z,-2.90
2022-12-13T22:54:39.981Z,-3.00
2022-12-13T22:57:25.988Z,-3.10
2022-12-13T23:00:12.852Z,-3.20
2022-12-13T23:02:58.699Z,-3.20
2022-12-13T23:05:44.721Z,-3.20
2022-12-13T23:08:30.775Z,-3.10
2022-12-13T23:11:35.515Z,-3.10
2022-12-13T23:14:25.425Z,-3.10
2022-12-13T23:17:11.502Z,-3.00
2022-12-13T23:19:58.203Z,-3.00
2022-12-13T23:22:44.049Z,-3.10
2022-12-13T23:25:30.113Z,-3.10
2022-12-13T23:28:16.116Z,-3.00
2022-12-13T23:31:02.393Z,-3.10
2022-12-13T23:33:48.290Z,-3.20
2022-12-13T23:36:34.564Z,-3.10
2022-12-13T23:39:20.221Z,-2.90
2022-12-13T23:42:06.375Z,-2.90
2022-12-13T23:44:52.580Z,-2.90
2022-12-13T23:47:38.675Z,-2.90
2022-12-13T23:50:24.626Z,-2.90
2022-12-13T23:53:10.448Z,-2.90
2022-12-13T23:55:56.459Z,-2.90
2022-12-13T23:58:42.943Z,-2.80
